sensor_id;sensor_type;location;lat;lon;timestamp;temperature;humidity
82001;SHT30;71522;50.870;3.524;2024-03-25T00:00:12;6.45;78.14
82001;SHT30;71522;50.870;3.524;2024-03-25T00:02:39;6.36;78.30
82001;SHT30;71522;50.870;3.524;2024-03-25T00:05:10;6.29;78.50
82001;SHT30;71522;50.870;3.524;2024-03-25T00:07:37;6.21;78.55
82001;SHT30;71522;50.870;3.524;2024-03-25T00:10:04;6.11;78.78
82001;SHT30;71522;50.870;3.524;2024-03-25T00:12:32;6.01;78.93
82001;SHT30;71522;50.870;3.524;2024-03-25T00:14:58;5.98;79.20
82001;SHT30;71522;50.870;3.524;2024-03-25T00:17:33;5.95;79.47
82001;SHT30;71522;50.870;3.524;2024-03-25T00:19:59;5.90;79.55
82001;SHT30;71522;50.870;3.524;2024-03-25T00:22:25;5.90;79.75
82001;SHT30;71522;50.870;3.524;2024-03-25T00:24:51;5.84;80.08
82001;SHT30;71522;50.870;3.524;2024-03-25T00:27:18;5.77;80.02
82001;SHT30;71522;50.870;3.524;2024-03-25T00:29:44;5.70;80.01
82001;SHT30;71522;50.870;3.524;2024-03-25T00:32:10;5.70;80.20
82001;SHT30;71522;50.870;3.524;2024-03-25T00:34:36;5.62;80.21
82001;SHT30;71522;50.870;3.524;2024-03-25T00:37:02;5.62;80.27
82001;SHT30;71522;50.870;3.524;2024-03-25T00:39:29;5.59;80.41
82001;SHT30;71522;50.870;3.524;2024-03-25T00:42:05;5.64;80.72
82001;SHT30;71522;50.870;3.524;2024-03-25T00:44:31;5.64;80.74
82001;SHT30;71522;50.870;3.524;2024-03-25T00:46:57;5.66;80.83
82001;SHT30;71522;50.870;3.524;2024-03-25T00:49:22;5.64;80.95
82001;SHT30;71522;50.870;3.524;2024-03-25T00:51:48;5.64;80.94
82001;SHT30;71522;50.870;3.524;2024-03-25T00:54:14;5.66;81.14
82001;SHT30;71522;50.870;3.524;2024-03-25T00:56:40;5.70;81.27
82001;SHT30;71522;50.870;3.524;2024-03-25T00:59:08;5.71;81.33
82001;SHT30;71522;50.870;3.524;2024-03-25T01:01:34;5.71;81.13
82001;SHT30;71522;50.870;3.524;2024-03-25T01:04:01;5.74;81.41
82001;SHT30;71522;50.870;3.524;2024-03-25T01:06:30;5.71;81.21
82001;SHT30;71522;50.870;3.524;2024-03-25T01:08:56;5.69;81.26
82001;SHT30;71522;50.870;3.524;2024-03-25T01:11:22;5.71;81.43
82001;SHT30;71522;50.870;3.524;2024-03-25T01:13:48;5.76;81.63
82001;SHT30;71522;50.870;3.524;2024-03-25T01:16:14;5.80;81.76
82001;SHT30;71522;50.870;3.524;2024-03-25T01:18:40;5.87;81.95
82001;SHT30;71522;50.870;3.524;2024-03-25T01:21:06;5.91;82.14
82001;SHT30;71522;50.870;3.524;2024-03-25T01:23:32;5.95;82.23
82001;SHT30;71522;50.870;3.524;2024-03-25T01:25:57;6.03;82.50
82001;SHT30;71522;50.870;3.524;2024-03-25T01:28:23;6.13;82.42
82001;SHT30;71522;50.870;3.524;2024-03-25T01:30:49;6.13;82.23
82001;SHT30;71522;50.870;3.524;2024-03-25T01:33:15;6.08;82.19
82001;SHT30;71522;50.870;3.524;2024-03-25T01:35:41;6.11;82.32
82001;SHT30;71522;50.870;3.524;2024-03-25T01:38:06;6.11;82.35
82001;SHT30;71522;50.870;3.524;2024-03-25T01:40:33;6.17;82.55
82001;SHT30;71522;50.870;3.524;2024-03-25T01:43:01;6.21;82.52
82001;SHT30;71522;50.870;3.524;2024-03-25T01:45:30;6.26;82.53
82001;SHT30;71522;50.870;3.524;2024-03-25T01:47:58;6.26;82.40
82001;SHT30;71522;50.870;3.524;2024-03-25T01:50:25;6.28;82.36
82001;SHT30;71522;50.870;3.524;2024-03-25T01:52:53;6.28;82.27
82001;SHT30;71522;50.870;3.524;2024-03-25T01:55:25;6.26;82.21
82001;SHT30;71522;50.870;3.524;2024-03-25T01:57:52;6.26;82.13
82001;SHT30;71522;50.870;3.524;2024-03-25T02:00:21;6.26;82.07
82001;SHT30;71522;50.870;3.524;2024-03-25T02:02:47;6.26;82.11
82001;SHT30;71522;50.870;3.524;2024-03-25T02:05:18;6.25;82.09
82001;SHT30;71522;50.870;3.524;2024-03-25T02:07:51;6.21;82.05
82001;SHT30;71522;50.870;3.524;2024-03-25T02:10:17;6.15;82.14
82001;SHT30;71522;50.870;3.524;2024-03-25T02:12:45;6.14;82.11
82001;SHT30;71522;50.870;3.524;2024-03-25T02:15:14;6.08;82.10
82001;SHT30;71522;50.870;3.524;2024-03-25T02:17:41;6.08;82.06
82001;SHT30;71522;50.870;3.524;2024-03-25T02:20:14;6.04;82.00
82001;SHT30;71522;50.870;3.524;2024-03-25T02:22:41;6.07;81.97
82001;SHT30;71522;50.870;3.524;2024-03-25T02:25:09;6.05;81.97
82001;SHT30;71522;50.870;3.524;2024-03-25T02:27:39;6.03;81.95
82001;SHT30;71522;50.870;3.524;2024-03-25T02:30:06;6.04;82.02
82001;SHT30;71522;50.870;3.524;2024-03-25T02:32:34;6.01;81.96
82001;SHT30;71522;50.870;3.524;2024-03-25T02:35:02;6.00;82.10
82001;SHT30;71522;50.870;3.524;2024-03-25T02:37:29;5.94;81.95
82001;SHT30;71522;50.870;3.524;2024-03-25T02:40:00;5.93;81.86
82001;SHT30;71522;50.870;3.524;2024-03-25T02:42:33;5.93;81.93
82001;SHT30;71522;50.870;3.524;2024-03-25T02:45:01;5.90;81.93
82001;SHT30;71522;50.870;3.524;2024-03-25T02:47:26;5.86;81.95
82001;SHT30;71522;50.870;3.524;2024-03-25T02:50:01;5.84;81.97
82001;SHT30;71522;50.870;3.524;2024-03-25T02:52:27;5.74;81.60
82001;SHT30;71522;50.870;3.524;2024-03-25T02:54:53;5.60;81.57
82001;SHT30;71522;50.870;3.524;2024-03-25T02:57:22;5.45;81.22
82001;SHT30;71522;50.870;3.524;2024-03-25T02:59:48;5.34;81.29
82001;SHT30;71522;50.870;3.524;2024-03-25T03:02:13;5.22;81.15
82001;SHT30;71522;50.870;3.524;2024-03-25T03:04:39;5.11;81.11
82001;SHT30;71522;50.870;3.524;2024-03-25T03:07:05;5.01;81.21
82001;SHT30;71522;50.870;3.524;2024-03-25T03:09:31;5.01;81.42
82001;SHT30;71522;50.870;3.524;2024-03-25T03:11:57;5.04;81.74
82001;SHT30;71522;50.870;3.524;2024-03-25T03:14:23;5.05;81.94
82001;SHT30;71522;50.870;3.524;2024-03-25T03:16:49;5.09;81.88
82001;SHT30;71522;50.870;3.524;2024-03-25T03:19:15;5.02;81.80
82001;SHT30;71522;50.870;3.524;2024-03-25T03:21:40;4.91;81.46
82001;SHT30;71522;50.870;3.524;2024-03-25T03:24:06;4.80;81.32
82001;SHT30;71522;50.870;3.524;2024-03-25T03:26:32;4.74;81.41
82001;SHT30;71522;50.870;3.524;2024-03-25T03:29:01;4.70;81.78
82001;SHT30;71522;50.870;3.524;2024-03-25T03:31:29;4.74;81.96
82001;SHT30;71522;50.870;3.524;2024-03-25T03:33:55;4.74;82.11
82001;SHT30;71522;50.870;3.524;2024-03-25T03:36:22;4.77;82.11
82001;SHT30;71522;50.870;3.524;2024-03-25T03:38:50;4.74;82.27
82001;SHT30;71522;50.870;3.524;2024-03-25T03:41:17;4.78;82.39
82001;SHT30;71522;50.870;3.524;2024-03-25T03:43:44;4.83;82.04
82001;SHT30;71522;50.870;3.524;2024-03-25T03:46:19;4.77;81.91
82001;SHT30;71522;50.870;3.524;2024-03-25T03:48:44;4.76;81.93
82001;SHT30;71522;50.870;3.524;2024-03-25T03:51:10;4.77;82.29
82001;SHT30;71522;50.870;3.524;2024-03-25T03:53:36;4.74;82.34
82001;SHT30;71522;50.870;3.524;2024-03-25T03:56:04;4.78;82.69
82001;SHT30;71522;50.870;3.524;2024-03-25T03:58:31;4.81;82.85
82001;SHT30;71522;50.870;3.524;2024-03-25T04:01:01;4.87;82.88
82001;SHT30;71522;50.870;3.524;2024-03-25T04:03:27;4.89;82.98
82001;SHT30;71522;50.870;3.524;2024-03-25T04:05:53;4.84;83.00
82001;SHT30;71522;50.870;3.524;2024-03-25T04:08:18;4.80;82.67
82001;SHT30;71522;50.870;3.524;2024-03-25T04:10:45;4.77;82.60
82001;SHT30;71522;50.870;3.524;2024-03-25T04:13:12;4.71;83.54
82001;SHT30;71522;50.870;3.524;2024-03-25T04:15:40;4.74;83.71
82001;SHT30;71522;50.870;3.524;2024-03-25T04:18:07;4.78;83.69
82001;SHT30;71522;50.870;3.524;2024-03-25T04:20:40;4.85;83.90
82001;SHT30;71522;50.870;3.524;2024-03-25T04:23:07;4.91;84.04
82001;SHT30;71522;50.870;3.524;2024-03-25T04:25:36;5.09;84.48
82001;SHT30;71522;50.870;3.524;2024-03-25T04:28:06;5.24;84.58
82001;SHT30;71522;50.870;3.524;2024-03-25T04:30:33;5.29;84.37
82001;SHT30;71522;50.870;3.524;2024-03-25T04:33:01;5.34;84.11
82001;SHT30;71522;50.870;3.524;2024-03-25T04:35:27;5.35;84.08
82001;SHT30;71522;50.870;3.524;2024-03-25T04:37:53;5.42;84.14
82001;SHT30;71522;50.870;3.524;2024-03-25T04:40:22;5.46;84.33
82001;SHT30;71522;50.870;3.524;2024-03-25T04:42:48;5.50;84.28
82001;SHT30;71522;50.870;3.524;2024-03-25T04:45:16;5.62;84.37
82001;SHT30;71522;50.870;3.524;2024-03-25T04:47:42;5.64;84.22
82001;SHT30;71522;50.870;3.524;2024-03-25T04:50:09;5.71;84.39
82001;SHT30;71522;50.870;3.524;2024-03-25T04:52:38;5.80;84.27
82001;SHT30;71522;50.870;3.524;2024-03-25T04:55:05;5.76;84.43
82001;SHT30;71522;50.870;3.524;2024-03-25T04:57:31;5.84;84.45
82001;SHT30;71522;50.870;3.524;2024-03-25T04:59:56;5.83;84.39
82001;SHT30;71522;50.870;3.524;2024-03-25T05:02:23;5.86;84.39
82001;SHT30;71522;50.870;3.524;2024-03-25T05:04:49;5.83;84.59
82001;SHT30;71522;50.870;3.524;2024-03-25T05:07:15;5.90;84.46
82001;SHT30;71522;50.870;3.524;2024-03-25T05:09:41;5.86;84.26
82001;SHT30;71522;50.870;3.524;2024-03-25T05:12:06;5.89;84.24
82001;SHT30;71522;50.870;3.524;2024-03-25T05:14:35;5.95;84.19
82001;SHT30;71522;50.870;3.524;2024-03-25T05:17:00;5.94;84.19
82001;SHT30;71522;50.870;3.524;2024-03-25T05:19:29;6.01;84.26
82001;SHT30;71522;50.870;3.524;2024-03-25T05:21:55;6.01;84.28
82001;SHT30;71522;50.870;3.524;2024-03-25T05:24:22;6.04;84.27
82001;SHT30;71522;50.870;3.524;2024-03-25T05:26:51;6.07;84.37
82001;SHT30;71522;50.870;3.524;2024-03-25T05:29:18;6.10;84.34
82001;SHT30;71522;50.870;3.524;2024-03-25T05:31:56;6.15;84.33
82001;SHT30;71522;50.870;3.524;2024-03-25T05:34:26;6.18;84.37
82001;SHT30;71522;50.870;3.524;2024-03-25T05:36:52;6.29;84.38
82001;SHT30;71522;50.870;3.524;2024-03-25T05:39:18;6.32;84.17
82001;SHT30;71522;50.870;3.524;2024-03-25T05:41:44;6.39;84.09
82001;SHT30;71522;50.870;3.524;2024-03-25T05:44:10;6.41;84.04
82001;SHT30;71522;50.870;3.524;2024-03-25T05:46:36;6.52;83.95
82001;SHT30;71522;50.870;3.524;2024-03-25T05:49:02;6.52;83.93
82001;SHT30;71522;50.870;3.524;2024-03-25T05:51:29;6.61;83.85
82001;SHT30;71522;50.870;3.524;2024-03-25T05:53:59;6.68;83.81
82001;SHT30;71522;50.870;3.524;2024-03-25T05:56:25;6.68;83.68
82001;SHT30;71522;50.870;3.524;2024-03-25T05:58:58;6.75;83.73
82001;SHT30;71522;50.870;3.524;2024-03-25T06:01:28;6.76;83.73
82001;SHT30;71522;50.870;3.524;2024-03-25T06:03:55;6.76;83.56
82001;SHT30;71522;50.870;3.524;2024-03-25T06:06:21;6.79;83.51
82001;SHT30;71522;50.870;3.524;2024-03-25T06:08:47;6.80;83.65
82001;SHT30;71522;50.870;3.524;2024-03-25T06:11:13;6.79;83.61
82001;SHT30;71522;50.870;3.524;2024-03-25T06:13:38;6.82;83.67
82001;SHT30;71522;50.870;3.524;2024-03-25T06:16:04;6.86;83.42
82001;SHT30;71522;50.870;3.524;2024-03-25T06:18:30;6.89;83.51
82001;SHT30;71522;50.870;3.524;2024-03-25T06:20:59;6.89;83.51
82001;SHT30;71522;50.870;3.524;2024-03-25T06:23:26;6.92;83.72
82001;SHT30;71522;50.870;3.524;2024-03-25T06:25:56;6.99;83.64
82001;SHT30;71522;50.870;3.524;2024-03-25T06:28:22;6.99;83.57
82001;SHT30;71522;50.870;3.524;2024-03-25T06:30:49;7.05;83.63
82001;SHT30;71522;50.870;3.524;2024-03-25T06:33:38;7.08;83.45
82001;SHT30;71522;50.870;3.524;2024-03-25T06:36:25;7.11;83.32
82001;SHT30;71522;50.870;3.524;2024-03-25T06:38:51;7.15;83.36
82001;SHT30;71522;50.870;3.524;2024-03-25T06:41:17;7.17;83.18
82001;SHT30;71522;50.870;3.524;2024-03-25T06:43:44;7.22;83.16
82001;SHT30;71522;50.870;3.524;2024-03-25T06:46:10;7.22;83.25
82001;SHT30;71522;50.870;3.524;2024-03-25T06:48:36;7.27;83.17
82001;SHT30;71522;50.870;3.524;2024-03-25T06:51:02;7.34;83.14
82001;SHT30;71522;50.870;3.524;2024-03-25T06:53:34;7.38;83.02
82001;SHT30;71522;50.870;3.524;2024-03-25T06:56:00;7.41;83.20
82001;SHT30;71522;50.870;3.524;2024-03-25T06:58:29;7.52;83.17
82001;SHT30;71522;50.870;3.524;2024-03-25T07:00:56;7.59;82.87
82001;SHT30;71522;50.870;3.524;2024-03-25T07:03:25;7.66;82.77
82001;SHT30;71522;50.870;3.524;2024-03-25T07:05:52;7.66;82.67
82001;SHT30;71522;50.870;3.524;2024-03-25T07:08:22;7.72;82.77
82001;SHT30;71522;50.870;3.524;2024-03-25T07:10:47;7.71;82.59
82001;SHT30;71522;50.870;3.524;2024-03-25T07:13:13;7.79;82.62
82001;SHT30;71522;50.870;3.524;2024-03-25T07:15:43;7.82;82.20
82001;SHT30;71522;50.870;3.524;2024-03-25T07:18:12;7.87;82.04
82001;SHT30;71522;50.870;3.524;2024-03-25T07:20:43;7.92;82.21
82001;SHT30;71522;50.870;3.524;2024-03-25T07:23:12;7.97;81.96
82001;SHT30;71522;50.870;3.524;2024-03-25T07:25:38;8.03;82.00
82001;SHT30;71522;50.870;3.524;2024-03-25T07:28:05;8.17;81.84
82001;SHT30;71522;50.870;3.524;2024-03-25T07:30:31;8.30;81.61
82001;SHT30;71522;50.870;3.524;2024-03-25T07:32:58;8.36;81.55
82001;SHT30;71522;50.870;3.524;2024-03-25T07:35:27;8.44;81.09
82001;SHT30;71522;50.870;3.524;2024-03-25T07:37:53;8.48;80.65
82001;SHT30;71522;50.870;3.524;2024-03-25T07:40:19;8.52;80.55
82001;SHT30;71522;50.870;3.524;2024-03-25T07:42:45;8.58;80.42
82001;SHT30;71522;50.870;3.524;2024-03-25T07:45:11;8.57;80.18
82001;SHT30;71522;50.870;3.524;2024-03-25T07:47:37;8.59;80.04
82001;SHT30;71522;50.870;3.524;2024-03-25T07:50:04;8.71;79.97
82001;SHT30;71522;50.870;3.524;2024-03-25T07:52:31;8.72;79.82
82001;SHT30;71522;50.870;3.524;2024-03-25T07:54:58;8.78;79.72
82001;SHT30;71522;50.870;3.524;2024-03-25T07:57:24;8.78;79.58
82001;SHT30;71522;50.870;3.524;2024-03-25T07:59:52;8.93;79.88
82001;SHT30;71522;50.870;3.524;2024-03-25T08:02:17;8.98;79.02
82001;SHT30;71522;50.870;3.524;2024-03-25T08:04:43;9.05;78.57
82001;SHT30;71522;50.870;3.524;2024-03-25T08:07:09;9.06;78.23
82001;SHT30;71522;50.870;3.524;2024-03-25T08:09:35;9.10;78.87
82001;SHT30;71522;50.870;3.524;2024-03-25T08:12:01;9.06;78.19
82001;SHT30;71522;50.870;3.524;2024-03-25T08:14:27;9.13;78.68
82001;SHT30;71522;50.870;3.524;2024-03-25T08:16:53;9.29;78.95
82001;SHT30;71522;50.870;3.524;2024-03-25T08:19:19;9.36;78.00
82001;SHT30;71522;50.870;3.524;2024-03-25T08:21:45;9.46;78.19
82001;SHT30;71522;50.870;3.524;2024-03-25T08:24:11;9.55;77.79
82001;SHT30;71522;50.870;3.524;2024-03-25T08:26:39;9.59;77.15
82001;SHT30;71522;50.870;3.524;2024-03-25T08:29:05;9.84;77.76
82001;SHT30;71522;50.870;3.524;2024-03-25T08:31:31;10.17;77.47
82001;SHT30;71522;50.870;3.524;2024-03-25T08:33:57;10.32;76.12
82001;SHT30;71522;50.870;3.524;2024-03-25T08:36:23;10.35;75.47
82001;SHT30;71522;50.870;3.524;2024-03-25T08:38:51;10.52;75.41
82001;SHT30;71522;50.870;3.524;2024-03-25T08:41:17;10.64;75.29
82001;SHT30;71522;50.870;3.524;2024-03-25T08:43:44;10.74;74.54
82001;SHT30;71522;50.870;3.524;2024-03-25T08:46:10;10.68;74.46
82001;SHT30;71522;50.870;3.524;2024-03-25T08:48:35;10.77;74.59
82001;SHT30;71522;50.870;3.524;2024-03-25T08:51:04;10.85;74.55
82001;SHT30;71522;50.870;3.524;2024-03-25T08:53:30;10.68;73.45
82001;SHT30;71522;50.870;3.524;2024-03-25T08:55:58;10.67;73.72
82001;SHT30;71522;50.870;3.524;2024-03-25T08:58:27;10.42;73.85
82001;SHT30;71522;50.870;3.524;2024-03-25T09:00:53;10.43;74.23
82001;SHT30;71522;50.870;3.524;2024-03-25T09:03:21;10.50;74.48
82001;SHT30;71522;50.870;3.524;2024-03-25T09:05:48;10.61;74.57
82001;SHT30;71522;50.870;3.524;2024-03-25T09:08:13;10.77;73.47
82001;SHT30;71522;50.870;3.524;2024-03-25T09:10:46;10.90;73.68
82001;SHT30;71522;50.870;3.524;2024-03-25T09:13:32;10.97;73.30
82001;SHT30;71522;50.870;3.524;2024-03-25T09:16:00;10.94;73.22
82001;SHT30;71522;50.870;3.524;2024-03-25T09:18:26;10.90;73.08
82001;SHT30;71522;50.870;3.524;2024-03-25T09:20:53;10.87;73.07
82001;SHT30;71522;50.870;3.524;2024-03-25T09:23:20;10.80;73.41
82001;SHT30;71522;50.870;3.524;2024-03-25T09:25:53;10.88;72.52
82001;SHT30;71522;50.870;3.524;2024-03-25T09:28:20;10.87;72.36
82001;SHT30;71522;50.870;3.524;2024-03-25T09:30:47;10.98;72.96
82001;SHT30;71522;50.870;3.524;2024-03-25T09:33:14;10.88;72.44
82001;SHT30;71522;50.870;3.524;2024-03-25T09:35:40;10.98;73.42
82001;SHT30;71522;50.870;3.524;2024-03-25T09:38:06;11.23;73.32
82001;SHT30;71522;50.870;3.524;2024-03-25T09:40:40;11.44;72.50
82001;SHT30;71522;50.870;3.524;2024-03-25T09:43:23;11.62;72.46
82001;SHT30;71522;50.870;3.524;2024-03-25T09:45:49;11.66;70.72
82001;SHT30;71522;50.870;3.524;2024-03-25T09:48:22;11.76;71.92
82001;SHT30;71522;50.870;3.524;2024-03-25T09:50:52;11.84;71.33
82001;SHT30;71522;50.870;3.524;2024-03-25T09:53:18;11.90;71.78
82001;SHT30;71522;50.870;3.524;2024-03-25T09:55:47;11.83;69.77
82001;SHT30;71522;50.870;3.524;2024-03-25T09:58:14;11.60;70.15
82001;SHT30;71522;50.870;3.524;2024-03-25T10:00:41;11.66;70.76
82001;SHT30;71522;50.870;3.524;2024-03-25T10:03:06;11.65;70.65
82001;SHT30;71522;50.870;3.524;2024-03-25T10:05:32;11.76;70.82
82001;SHT30;71522;50.870;3.524;2024-03-25T10:07:59;11.89;70.37
82001;SHT30;71522;50.870;3.524;2024-03-25T10:10:25;11.93;69.97
82001;SHT30;71522;50.870;3.524;2024-03-25T10:12:51;11.97;69.88
82001;SHT30;71522;50.870;3.524;2024-03-25T10:15:17;12.08;70.82
82001;SHT30;71522;50.870;3.524;2024-03-25T10:17:43;12.11;69.47
82001;SHT30;71522;50.870;3.524;2024-03-25T10:20:15;12.31;69.83
82001;SHT30;71522;50.870;3.524;2024-03-25T10:22:45;12.38;67.93
82001;SHT30;71522;50.870;3.524;2024-03-25T10:25:27;12.24;67.59
82001;SHT30;71522;50.870;3.524;2024-03-25T10:27:58;12.45;67.04
82001;SHT30;71522;50.870;3.524;2024-03-25T10:30:24;12.44;66.62
82001;SHT30;71522;50.870;3.524;2024-03-25T10:33:02;12.35;67.63
82001;SHT30;71522;50.870;3.524;2024-03-25T10:35:30;12.44;69.11
82001;SHT30;71522;50.870;3.524;2024-03-25T10:38:00;12.56;68.53
82001;SHT30;71522;50.870;3.524;2024-03-25T10:40:29;12.85;68.56
82001;SHT30;71522;50.870;3.524;2024-03-25T10:45:30;13.23;66.63
82001;SHT30;71522;50.870;3.524;2024-03-25T10:48:03;13.16;65.56
82001;SHT30;71522;50.870;3.524;2024-03-25T10:50:30;13.06;64.59
82001;SHT30;71522;50.870;3.524;2024-03-25T10:53:02;12.93;64.59
82001;SHT30;71522;50.870;3.524;2024-03-25T10:55:31;12.87;65.67
82001;SHT30;71522;50.870;3.524;2024-03-25T10:58:00;13.04;66.80
82001;SHT30;71522;50.870;3.524;2024-03-25T11:00:28;13.36;65.52
82001;SHT30;71522;50.870;3.524;2024-03-25T11:02:56;13.44;66.43
82001;SHT30;71522;50.870;3.524;2024-03-25T11:05:23;13.74;65.60
82001;SHT30;71522;50.870;3.524;2024-03-25T11:07:49;13.79;63.48
82001;SHT30;71522;50.870;3.524;2024-03-25T11:10:17;13.81;62.47
82001;SHT30;71522;50.870;3.524;2024-03-25T11:12:43;13.82;62.35
82001;SHT30;71522;50.870;3.524;2024-03-25T11:15:09;13.78;62.84
82001;SHT30;71522;50.870;3.524;2024-03-25T11:17:36;13.87;62.85
82001;SHT30;71522;50.870;3.524;2024-03-25T11:20:16;13.96;63.56
82001;SHT30;71522;50.870;3.524;2024-03-25T11:22:51;14.12;63.98
82001;SHT30;71522;50.870;3.524;2024-03-25T11:25:20;14.41;58.88
82001;SHT30;71522;50.870;3.524;2024-03-25T11:27:47;14.54;58.01
82001;SHT30;71522;50.870;3.524;2024-03-25T11:30:14;14.54;58.29
82001;SHT30;71522;50.870;3.524;2024-03-25T11:32:52;14.67;58.05
82001;SHT30;71522;50.870;3.524;2024-03-25T11:35:21;14.65;57.58
82001;SHT30;71522;50.870;3.524;2024-03-25T11:37:48;14.51;57.75
82001;SHT30;71522;50.870;3.524;2024-03-25T11:40:15;14.19;56.56
82001;SHT30;71522;50.870;3.524;2024-03-25T11:42:50;13.95;59.48
82001;SHT30;71522;50.870;3.524;2024-03-25T11:45:19;13.98;60.68
82001;SHT30;71522;50.870;3.524;2024-03-25T11:47:48;14.41;60.87
82001;SHT30;71522;50.870;3.524;2024-03-25T11:50:20;14.53;58.90
82001;SHT30;71522;50.870;3.524;2024-03-25T11:52:48;14.74;58.66
82001;SHT30;71522;50.870;3.524;2024-03-25T11:55:17;14.85;56.85
82001;SHT30;71522;50.870;3.524;2024-03-25T11:57:43;14.85;57.40
82001;SHT30;71522;50.870;3.524;2024-03-25T12:00:09;15.05;55.48
82001;SHT30;71522;50.870;3.524;2024-03-25T12:02:45;14.81;55.36
82001;SHT30;71522;50.870;3.524;2024-03-25T12:05:11;14.41;56.59
82001;SHT30;71522;50.870;3.524;2024-03-25T12:07:38;14.34;58.18
82001;SHT30;71522;50.870;3.524;2024-03-25T12:10:04;14.77;57.35
82001;SHT30;71522;50.870;3.524;2024-03-25T12:12:52;15.12;55.07
82001;SHT30;71522;50.870;3.524;2024-03-25T12:15:18;14.77;53.82
82001;SHT30;71522;50.870;3.524;2024-03-25T12:17:45;14.40;54.66
82001;SHT30;71522;50.870;3.524;2024-03-25T12:20:11;14.37;56.64
82001;SHT30;71522;50.870;3.524;2024-03-25T12:22:38;14.48;56.60
82001;SHT30;71522;50.870;3.524;2024-03-25T12:25:05;14.75;57.61
82001;SHT30;71522;50.870;3.524;2024-03-25T12:27:33;14.67;56.99
82001;SHT30;71522;50.870;3.524;2024-03-25T12:30:04;14.57;54.71
82001;SHT30;71522;50.870;3.524;2024-03-25T12:32:39;14.78;56.01
82001;SHT30;71522;50.870;3.524;2024-03-25T12:35:09;14.85;57.24
82001;SHT30;71522;50.870;3.524;2024-03-25T12:37:37;14.89;55.83
82001;SHT30;71522;50.870;3.524;2024-03-25T12:40:07;14.78;53.59
82001;SHT30;71522;50.870;3.524;2024-03-25T12:42:35;14.63;55.43
82001;SHT30;71522;50.870;3.524;2024-03-25T12:45:01;14.65;56.95
82001;SHT30;71522;50.870;3.524;2024-03-25T12:47:28;14.64;56.36
82001;SHT30;71522;50.870;3.524;2024-03-25T12:49:54;14.63;55.85
82001;SHT30;71522;50.870;3.524;2024-03-25T12:52:20;14.59;57.93
82001;SHT30;71522;50.870;3.524;2024-03-25T12:54:49;14.59;58.29
82001;SHT30;71522;50.870;3.524;2024-03-25T12:57:15;14.70;57.25
82001;SHT30;71522;50.870;3.524;2024-03-25T12:59:41;14.68;56.41
82001;SHT30;71522;50.870;3.524;2024-03-25T13:02:12;14.53;54.97
82001;SHT30;71522;50.870;3.524;2024-03-25T13:04:38;14.13;55.24
82001;SHT30;71522;50.870;3.524;2024-03-25T13:07:08;13.96;56.13
82001;SHT30;71522;50.870;3.524;2024-03-25T13:09:33;13.98;57.29
82001;SHT30;71522;50.870;3.524;2024-03-25T13:11:59;14.20;55.87
82001;SHT30;71522;50.870;3.524;2024-03-25T13:14:25;14.36;55.78
82001;SHT30;71522;50.870;3.524;2024-03-25T13:16:51;14.64;54.43
82001;SHT30;71522;50.870;3.524;2024-03-25T13:19:17;14.88;53.66
82001;SHT30;71522;50.870;3.524;2024-03-25T13:21:44;15.12;52.81
82001;SHT30;71522;50.870;3.524;2024-03-25T13:24:10;15.40;51.64
82001;SHT30;71522;50.870;3.524;2024-03-25T13:26:35;15.67;51.32
82001;SHT30;71522;50.870;3.524;2024-03-25T13:29:07;16.01;54.01
82001;SHT30;71522;50.870;3.524;2024-03-25T13:31:33;16.17;51.96
82001;SHT30;71522;50.870;3.524;2024-03-25T13:33:59;16.26;53.84
82001;SHT30;71522;50.870;3.524;2024-03-25T13:36:25;16.45;54.13
82001;SHT30;71522;50.870;3.524;2024-03-25T13:38:51;16.65;52.27
82001;SHT30;71522;50.870;3.524;2024-03-25T13:41:35;16.68;51.13
82001;SHT30;71522;50.870;3.524;2024-03-25T13:44:01;16.91;51.55
82001;SHT30;71522;50.870;3.524;2024-03-25T13:46:26;16.94;50.05
82001;SHT30;71522;50.870;3.524;2024-03-25T13:48:52;16.96;48.35
82001;SHT30;71522;50.870;3.524;2024-03-25T13:51:18;16.70;49.62
82001;SHT30;71522;50.870;3.524;2024-03-25T13:53:44;16.56;50.42
82001;SHT30;71522;50.870;3.524;2024-03-25T13:56:10;16.12;51.82
82001;SHT30;71522;50.870;3.524;2024-03-25T13:58:41;15.71;49.46
82001;SHT30;71522;50.870;3.524;2024-03-25T14:01:06;15.63;50.43
82001;SHT30;71522;50.870;3.524;2024-03-25T14:03:34;15.60;49.74
82001;SHT30;71522;50.870;3.524;2024-03-25T14:06:05;15.74;50.45
82001;SHT30;71522;50.870;3.524;2024-03-25T14:08:41;15.90;49.55
82001;SHT30;71522;50.870;3.524;2024-03-25T14:11:08;15.70;48.92
82001;SHT30;71522;50.870;3.524;2024-03-25T14:13:34;15.43;50.89
82001;SHT30;71522;50.870;3.524;2024-03-25T14:16:04;15.19;51.64
82001;SHT30;71522;50.870;3.524;2024-03-25T14:18:30;15.11;53.01
82001;SHT30;71522;50.870;3.524;2024-03-25T14:20:56;15.21;52.34
82001;SHT30;71522;50.870;3.524;2024-03-25T14:23:24;15.38;52.31
82001;SHT30;71522;50.870;3.524;2024-03-25T14:25:51;15.60;51.99
82001;SHT30;71522;50.870;3.524;2024-03-25T14:28:17;15.56;50.93
82001;SHT30;71522;50.870;3.524;2024-03-25T14:30:43;15.54;49.68
82001;SHT30;71522;50.870;3.524;2024-03-25T14:33:08;15.69;47.89
82001;SHT30;71522;50.870;3.524;2024-03-25T14:35:34;15.69;49.58
82001;SHT30;71522;50.870;3.524;2024-03-25T14:38:00;15.64;49.89
82001;SHT30;71522;50.870;3.524;2024-03-25T14:40:26;15.66;49.20
82001;SHT30;71522;50.870;3.524;2024-03-25T14:42:54;15.52;50.41
82001;SHT30;71522;50.870;3.524;2024-03-25T14:45:20;15.57;50.36
82001;SHT30;71522;50.870;3.524;2024-03-25T14:47:45;15.67;49.36
82001;SHT30;71522;50.870;3.524;2024-03-25T14:50:11;15.76;51.72
82001;SHT30;71522;50.870;3.524;2024-03-25T14:52:37;15.77;50.96
82001;SHT30;71522;50.870;3.524;2024-03-25T14:55:05;15.71;49.17
82001;SHT30;71522;50.870;3.524;2024-03-25T14:57:39;15.54;52.51
82001;SHT30;71522;50.870;3.524;2024-03-25T15:00:08;15.60;51.47
82001;SHT30;71522;50.870;3.524;2024-03-25T15:02:34;15.64;51.96
82001;SHT30;71522;50.870;3.524;2024-03-25T15:05:00;15.61;51.36
82001;SHT30;71522;50.870;3.524;2024-03-25T15:07:28;15.67;51.47
82001;SHT30;71522;50.870;3.524;2024-03-25T15:09:54;15.71;53.58
82001;SHT30;71522;50.870;3.524;2024-03-25T15:12:20;15.73;50.32
82001;SHT30;71522;50.870;3.524;2024-03-25T15:14:47;15.64;52.94
82001;SHT30;71522;50.870;3.524;2024-03-25T15:17:13;15.76;51.86
82001;SHT30;71522;50.870;3.524;2024-03-25T15:19:39;15.56;53.59
82001;SHT30;71522;50.870;3.524;2024-03-25T15:22:14;15.69;52.36
82001;SHT30;71522;50.870;3.524;2024-03-25T15:24:39;15.84;51.35
82001;SHT30;71522;50.870;3.524;2024-03-25T15:27:05;15.79;49.49
82001;SHT30;71522;50.870;3.524;2024-03-25T15:29:31;15.73;49.69
82001;SHT30;71522;50.870;3.524;2024-03-25T15:31:56;15.60;49.58
82001;SHT30;71522;50.870;3.524;2024-03-25T15:34:25;15.63;52.88
82001;SHT30;71522;50.870;3.524;2024-03-25T15:36:51;15.63;49.11
82001;SHT30;71522;50.870;3.524;2024-03-25T15:39:21;15.47;50.72
82001;SHT30;71522;50.870;3.524;2024-03-25T15:41:47;15.31;50.48
82001;SHT30;71522;50.870;3.524;2024-03-25T15:44:14;15.23;50.18